Estación Meteorológica Peña el Pijo (Robertgarden) [ 10/20/18 08:04:21 CEST ]

Fecha Hora Presion(HPa) Temp (°C) Humedad % Rocio (°C) Viento ( m/s) Direccion Lluvia 1Hora(mm) Lluvia 24H(mm) LLuvia Total(mm)
2018-Jun-27 01:01:42 1012.400 17.3 62 9.9         266.25
2018-Jun-27 02:01:40 1012.500 16.1 68 10.2         266.25
2018-Jun-27 03:01:38 1012.400 15.4 71 10.2         266.25
2018-Jun-27 04:05:10 1012.200 15.1 73 10.3         266.25
2018-Jun-27 05:01:41 1012.000 14.7 75 10.3         266.25
2018-Jun-27 06:01:26 1012.000 14.9 78 11.1         266.25
2018-Jun-27 07:01:39 1012.100 14.8 79 11.2         266.25
2018-Jun-27 08:01:39 1011.900 16.3 82 13.2         266.25
2018-Jun-27 09:01:33 1011.700 21.9 72 16.6         266.25
2018-Jun-27 10:01:48 1011.400 26.4 57 17.2         266.25
2018-Jun-27 11:01:42 1011.300 29.7 45 16.5         266.25
2018-Jun-27 12:01:53 1010.800 33.0 36 15.8         266.25
2018-Jun-27 13:01:50 1010.500 33.1 27 11.4         266.25
2018-Jun-27 14:01:42 1009.800 33.9 26 11.5         266.25
2018-Jun-27 15:01:58 1009.200 33.5 30 13.6         266.25
2018-Jun-27 16:01:52 1009.100 33.2 30 13.4 0.4 S     266.25
2018-Jun-27 17:02:13 1008.200 32.3 29 12.0         266.25
2018-Jun-27 18:01:43 1008.200 30.9 32 12.2         266.25
2018-Jun-27 19:01:44 1007.700 29.6 33 11.6         266.25
2018-Jun-27 20:01:54 1008.500 24.4 57 15.3         266.25
2018-Jun-27 21:01:46 1009.100 19.6 71 14.2     3.10 3.10 269.36
2018-Jun-27 22:01:46 1009.400 18.4 78 14.5       3.10 269.36
2018-Jun-27 23:01:46 1010.100 17.8 81 14.5       3.10 269.36

Temperatura Máxima:33°    Temperatura Mínima:14°
Presión Máxima:1012.500 Hpa    Presión Mínima:1007.700 Hpa


Volver